createdAt,value
2023-04-04T00:00:46.948Z,16.90
2023-04-04T00:03:14.937Z,16.90
2023-04-04T00:05:42.796Z,16.90
2023-04-04T00:08:10.711Z,16.90
2023-04-04T00:10:38.980Z,16.90
2023-04-04T00:13:07.765Z,16.80
2023-04-04T00:15:36.596Z,16.80
2023-04-04T00:18:04.497Z,16.80
2023-04-04T00:20:32.356Z,16.80
2023-04-04T00:23:00.701Z,16.80
2023-04-04T00:25:28.644Z,16.80
2023-04-04T00:28:00.910Z,16.80
2023-04-04T00:30:29.043Z,16.80
2023-04-04T00:32:57.462Z,16.80
2023-04-04T00:35:25.468Z,16.80
2023-04-04T00:37:53.429Z,16.80
2023-04-04T00:40:21.572Z,16.70
2023-04-04T00:42:49.392Z,16.70
2023-04-04T00:45:17.369Z,16.70
2023-04-04T00:47:45.279Z,16.70
2023-04-04T00:50:13.235Z,16.70
2023-04-04T00:52:41.131Z,16.70
2023-04-04T00:55:08.929Z,16.70
2023-04-04T00:57:36.873Z,16.70
2023-04-04T01:00:05.365Z,16.70
2023-04-04T01:02:33.555Z,16.70
2023-04-04T01:05:02.258Z,16.70
2023-04-04T01:07:30.698Z,16.60
2023-04-04T01:09:59.454Z,16.60
2023-04-04T01:12:27.414Z,16.60
2023-04-04T01:14:55.245Z,16.70
2023-04-04T01:17:23.170Z,16.70
2023-04-04T01:19:51.143Z,16.60
2023-04-04T01:22:18.878Z,16.60
2023-04-04T01:24:46.699Z,16.60
2023-04-04T01:27:14.630Z,16.60
2023-04-04T01:29:42.393Z,16.60
2023-04-04T01:32:10.162Z,16.60
2023-04-04T01:34:38.077Z,16.50
2023-04-04T01:37:05.885Z,16.50
2023-04-04T01:39:33.784Z,16.60
2023-04-04T01:42:01.619Z,16.50
2023-04-04T01:44:29.619Z,16.60
2023-04-04T01:46:57.366Z,16.50
2023-04-04T01:49:25.162Z,16.50
2023-04-04T01:51:53.104Z,16.60
2023-04-04T01:54:21.145Z,16.50
2023-04-04T01:56:49.274Z,16.50
2023-04-04T01:59:17.288Z,16.50
2023-04-04T02:01:45.306Z,16.50
2023-04-04T02:04:14.603Z,16.50
2023-04-04T02:06:42.416Z,16.60
2023-04-04T02:09:10.205Z,16.50
2023-04-04T02:11:39.105Z,16.50
2023-04-04T02:14:06.903Z,16.50
2023-04-04T02:16:34.789Z,16.50
2023-04-04T02:19:02.600Z,16.50
2023-04-04T02:21:30.471Z,16.50
2023-04-04T02:23:58.332Z,16.50
2023-04-04T02:26:26.271Z,16.50
2023-04-04T02:28:54.087Z,16.50
2023-04-04T02:31:22.077Z,16.50
2023-04-04T02:33:50.039Z,16.50
2023-04-04T02:36:17.917Z,16.40
2023-04-04T02:38:45.861Z,16.40
2023-04-04T02:41:13.661Z,16.50
2023-04-04T02:43:41.644Z,16.40
2023-04-04T02:46:20.491Z,16.40
2023-04-04T02:48:49.567Z,16.40
2023-04-04T02:51:17.588Z,16.40
2023-04-04T02:53:45.389Z,16.40
2023-04-04T02:56:13.237Z,16.40
2023-04-04T02:58:41.672Z,16.40
2023-04-04T03:01:10.530Z,16.40
2023-04-04T03:03:38.473Z,16.40
2023-04-04T03:06:06.348Z,16.40
2023-04-04T03:08:35.124Z,16.40
2023-04-04T03:11:03.412Z,16.40
2023-04-04T03:13:31.243Z,16.40
2023-04-04T03:15:59.034Z,16.40
2023-04-04T03:18:26.813Z,16.40
2023-04-04T03:20:54.722Z,16.30
2023-04-04T03:23:22.527Z,16.40
2023-04-04T03:25:50.340Z,16.30
2023-04-04T03:28:18.199Z,16.30
2023-04-04T03:30:46.037Z,16.40
2023-04-04T03:33:13.873Z,16.30
2023-04-04T03:35:41.924Z,16.30
2023-04-04T03:38:09.997Z,16.30
2023-04-04T03:40:37.817Z,16.30
2023-04-04T03:43:05.643Z,16.30
2023-04-04T03:45:33.422Z,16.30
2023-04-04T03:48:01.644Z,16.30
2023-04-04T03:50:29.480Z,16.30
2023-04-04T03:52:58.425Z,16.30
2023-04-04T03:55:26.365Z,16.20
2023-04-04T03:57:54.238Z,16.30
2023-04-04T04:00:22.109Z,16.30
2023-04-04T04:02:49.986Z,16.20
2023-04-04T04:05:22.309Z,16.20
2023-04-04T04:07:50.645Z,16.30
2023-04-04T04:10:18.480Z,16.20
2023-04-04T04:12:47.561Z,16.20
2023-04-04T04:15:15.390Z,16.10
2023-04-04T04:17:43.341Z,16.20
2023-04-04T04:20:11.481Z,16.20
2023-04-04T04:22:39.318Z,16.10
2023-04-04T04:25:07.182Z,16.10
2023-04-04T04:27:34.995Z,16.10
2023-04-04T04:30:02.793Z,16.10
2023-04-04T04:32:30.697Z,16.20
2023-04-04T04:34:58.603Z,16.20
2023-04-04T04:37:27.188Z,16.20
2023-04-04T04:39:55.547Z,16.20
2023-04-04T04:42:23.399Z,16.20
2023-04-04T04:44:51.177Z,16.20
2023-04-04T04:47:19.359Z,16.20
2023-04-04T04:49:49.609Z,16.20
2023-04-04T04:52:17.514Z,16.20
2023-04-04T04:54:45.372Z,16.20
2023-04-04T04:57:13.235Z,16.20
2023-04-04T04:59:41.421Z,16.20
2023-04-04T05:02:09.302Z,16.20
2023-04-04T05:04:37.124Z,16.20
2023-04-04T05:07:04.943Z,16.20
2023-04-04T05:09:33.112Z,16.20
2023-04-04T05:12:01.052Z,16.20
2023-04-04T05:14:28.896Z,16.20
2023-04-04T05:16:56.977Z,16.20
2023-04-04T05:19:24.905Z,16.20
2023-04-04T05:21:54.044Z,16.20
2023-04-04T05:24:22.969Z,16.20
2023-04-04T05:26:51.121Z,16.20
2023-04-04T05:29:18.967Z,16.20
2023-04-04T05:31:47.352Z,16.20
2023-04-04T05:34:15.255Z,16.20
2023-04-04T05:36:43.092Z,16.20
2023-04-04T05:39:10.956Z,16.20
2023-04-04T05:41:38.745Z,16.20
2023-04-04T05:44:06.581Z,16.20
2023-04-04T05:46:34.453Z,16.20
2023-04-04T05:49:03.179Z,16.20
2023-04-04T05:51:31.032Z,16.20
2023-04-04T05:53:58.982Z,16.20
2023-04-04T05:56:26.732Z,16.20
2023-04-04T05:58:54.657Z,16.20
2023-04-04T06:01:22.479Z,16.20
2023-04-04T06:03:50.265Z,16.20
2023-04-04T06:06:18.287Z,16.20
2023-04-04T06:08:53.473Z,16.20
2023-04-04T06:11:23.098Z,16.20
2023-04-04T06:13:50.908Z,16.20
2023-04-04T06:16:18.763Z,16.20
2023-04-04T06:18:46.604Z,16.20
2023-04-04T06:21:14.453Z,16.20
2023-04-04T06:23:43.778Z,16.20
2023-04-04T06:26:12.629Z,16.20
2023-04-04T06:28:40.481Z,16.30
2023-04-04T06:31:08.864Z,16.20
2023-04-04T06:33:36.853Z,16.20
2023-04-04T06:36:04.668Z,16.20
2023-04-04T06:38:33.373Z,16.20
2023-04-04T06:41:01.356Z,16.30
2023-04-04T06:43:30.888Z,16.30
2023-04-04T06:45:58.984Z,16.30
2023-04-04T06:48:26.837Z,16.30
2023-04-04T06:50:54.905Z,16.30
2023-04-04T06:53:23.816Z,16.30
2023-04-04T06:55:52.067Z,16.30
2023-04-04T06:58:19.998Z,16.30
2023-04-04T07:00:47.981Z,16.40
2023-04-04T07:03:15.962Z,16.40
2023-04-04T07:05:43.775Z,16.40
2023-04-04T07:08:11.760Z,16.40
2023-04-04T07:10:40.663Z,16.50
2023-04-04T07:13:09.759Z,16.50
2023-04-04T07:15:37.647Z,16.50
2023-04-04T07:18:05.436Z,16.50
2023-04-04T07:20:33.284Z,16.50
2023-04-04T07:23:01.242Z,16.50
2023-04-04T07:25:29.097Z,16.40
2023-04-04T07:28:09.531Z,16.40
2023-04-04T07:30:38.096Z,16.40
2023-04-04T07:33:06.280Z,16.50
2023-04-04T07:35:34.173Z,16.40
2023-04-04T07:38:03.190Z,16.40
2023-04-04T07:40:31.890Z,16.40
2023-04-04T07:42:59.853Z,16.40
2023-04-04T07:45:27.651Z,16.40
2023-04-04T07:47:55.950Z,16.40
2023-04-04T07:50:23.896Z,16.40
2023-04-04T07:52:52.860Z,16.40
2023-04-04T07:55:20.715Z,16.40
2023-04-04T07:57:48.533Z,16.40
2023-04-04T08:00:17.664Z,16.40
2023-04-04T08:02:46.434Z,16.40
2023-04-04T08:05:14.286Z,16.40
2023-04-04T08:07:42.731Z,16.40
2023-04-04T08:10:10.653Z,16.40
2023-04-04T08:12:38.467Z,16.40
2023-04-04T08:15:06.254Z,16.40
2023-04-04T08:17:34.304Z,16.40
2023-04-04T08:20:02.086Z,16.40
2023-04-04T08:22:29.866Z,16.40
2023-04-04T08:24:57.679Z,16.40
2023-04-04T08:27:25.468Z,16.40
2023-04-04T08:29:53.253Z,16.40
2023-04-04T08:32:21.050Z,16.40
2023-04-04T08:34:48.889Z,16.40
2023-04-04T08:37:17.122Z,16.40
2023-04-04T08:39:45.451Z,16.40
2023-04-04T08:42:15.083Z,16.40
2023-04-04T08:44:42.911Z,16.40
2023-04-04T08:47:11.283Z,16.40
2023-04-04T08:49:39.280Z,16.40
2023-04-04T08:52:07.611Z,16.40
2023-04-04T08:54:35.418Z,16.40
2023-04-04T08:57:04.170Z,16.40
2023-04-04T08:59:32.129Z,16.50
2023-04-04T09:02:01.328Z,16.50
2023-04-04T09:04:29.248Z,16.40
2023-04-04T09:06:57.412Z,16.50
2023-04-04T09:09:25.236Z,16.50
2023-04-04T09:11:53.136Z,16.50
2023-04-04T09:14:20.964Z,16.50
2023-04-04T09:16:48.839Z,16.50
2023-04-04T09:19:17.216Z,16.50
2023-04-04T09:21:45.026Z,16.60
2023-04-04T09:24:12.926Z,16.60
2023-04-04T09:26:40.758Z,16.60
2023-04-04T09:29:08.559Z,16.60
2023-04-04T09:31:36.377Z,16.60
2023-04-04T09:34:04.138Z,16.60
2023-04-04T09:36:32.273Z,16.60
2023-04-04T09:39:00.102Z,16.60
2023-04-04T09:41:27.926Z,16.60
2023-04-04T09:43:56.180Z,16.60
2023-04-04T09:46:25.331Z,16.60
2023-04-04T09:48:53.342Z,16.60
2023-04-04T09:51:22.313Z,16.60
2023-04-04T09:53:50.134Z,16.60
2023-04-04T09:56:17.938Z,16.60
2023-04-04T09:58:55.965Z,16.60
2023-04-04T10:01:30.814Z,16.60
2023-04-04T10:03:58.748Z,16.60
2023-04-04T10:06:27.100Z,16.60
2023-04-04T10:08:54.913Z,16.60
2023-04-04T10:11:23.535Z,16.60
2023-04-04T10:13:51.955Z,16.60
2023-04-04T10:16:20.056Z,16.60
2023-04-04T10:18:47.952Z,16.60
2023-04-04T10:21:16.336Z,16.60
2023-04-04T10:23:44.195Z,16.70
2023-04-04T10:26:13.017Z,16.70
2023-04-04T10:28:42.493Z,16.70
2023-04-04T10:31:11.035Z,16.70
2023-04-04T10:33:38.864Z,16.70
2023-04-04T10:36:06.783Z,16.70
2023-04-04T10:38:34.691Z,16.70
2023-04-04T10:41:03.891Z,16.70
2023-04-04T10:43:31.661Z,16.70
2023-04-04T10:45:59.580Z,16.70
2023-04-04T10:48:28.129Z,16.70
2023-04-04T10:50:56.093Z,16.70
2023-04-04T10:53:24.042Z,16.70
2023-04-04T10:55:51.967Z,16.70
2023-04-04T10:58:19.788Z,16.70
2023-04-04T11:00:47.810Z,16.70
2023-04-04T11:03:15.955Z,16.70
2023-04-04T11:05:47.442Z,16.70
2023-04-04T11:08:17.057Z,16.80
2023-04-04T11:10:44.883Z,16.80
2023-04-04T11:13:14.274Z,16.80
2023-04-04T11:15:42.844Z,16.80
2023-04-04T11:18:28.904Z,16.80
2023-04-04T11:20:59.829Z,16.80
2023-04-04T11:23:27.864Z,16.70
2023-04-04T11:25:55.727Z,16.70
2023-04-04T11:28:23.556Z,16.70
2023-04-04T11:30:51.318Z,16.70
2023-04-04T11:33:19.200Z,16.70
2023-04-04T11:35:47.195Z,16.70
2023-04-04T11:38:15.010Z,16.70
2023-04-04T11:40:42.930Z,16.70
2023-04-04T11:43:10.802Z,16.80
2023-04-04T11:45:39.322Z,16.80
2023-04-04T11:48:07.809Z,16.80
2023-04-04T11:50:35.857Z,16.80
2023-04-04T11:53:03.649Z,16.80
2023-04-04T11:55:31.504Z,16.80
2023-04-04T11:58:02.620Z,16.80
2023-04-04T12:00:30.553Z,16.80
2023-04-04T12:02:58.468Z,16.80
2023-04-04T12:05:26.542Z,16.80
2023-04-04T12:07:54.557Z,16.80
2023-04-04T12:10:22.394Z,16.80
2023-04-04T12:12:50.436Z,16.80
2023-04-04T12:15:18.769Z,16.80
2023-04-04T12:17:48.619Z,16.80
2023-04-04T12:20:16.519Z,16.80
2023-04-04T12:22:45.679Z,16.80
2023-04-04T12:25:13.466Z,16.80
2023-04-04T12:27:41.254Z,16.80
2023-04-04T12:30:15.700Z,16.80
2023-04-04T12:32:43.714Z,16.80
2023-04-04T12:35:11.479Z,16.80
2023-04-04T12:37:39.264Z,16.80
2023-04-04T12:40:07.546Z,16.80
2023-04-04T12:42:35.387Z,16.80
2023-04-04T12:45:04.216Z,16.80
2023-04-04T12:47:32.442Z,16.80
2023-04-04T12:50:00.736Z,16.90
2023-04-04T12:52:29.589Z,16.90
2023-04-04T12:55:07.578Z,16.90
2023-04-04T12:57:36.143Z,16.90
2023-04-04T13:00:04.437Z,16.90
2023-04-04T13:02:32.418Z,16.90
2023-04-04T13:05:00.380Z,16.90
2023-04-04T13:07:28.577Z,16.90
2023-04-04T13:09:56.566Z,16.80
2023-04-04T13:12:25.148Z,16.80
2023-04-04T13:14:52.944Z,16.80
2023-04-04T13:17:20.759Z,16.80
2023-04-04T13:19:48.539Z,16.90
2023-04-04T13:22:16.355Z,16.90
2023-04-04T13:24:44.111Z,16.90
2023-04-04T13:27:11.928Z,17.00
2023-04-04T13:29:39.740Z,17.00
2023-04-04T13:32:07.590Z,17.00
2023-04-04T13:34:36.236Z,16.90
2023-04-04T13:37:04.034Z,17.00
2023-04-04T13:39:31.927Z,17.00
2023-04-04T13:41:59.808Z,17.00
2023-04-04T13:44:27.604Z,17.00
2023-04-04T13:46:55.400Z,17.10
2023-04-04T13:49:23.216Z,17.20
2023-04-04T13:51:51.051Z,17.30
2023-04-04T13:54:18.808Z,17.40
2023-04-04T13:56:47.387Z,17.50
2023-04-04T13:59:15.322Z,17.60
2023-04-04T14:01:43.186Z,17.70
2023-04-04T14:04:22.826Z,17.80
2023-04-04T14:06:51.878Z,17.90
2023-04-04T14:09:19.674Z,17.90
2023-04-04T14:11:47.668Z,18.00
2023-04-04T14:14:15.478Z,18.00
2023-04-04T14:16:43.262Z,18.10
2023-04-04T14:19:11.246Z,18.20
2023-04-04T14:21:39.102Z,18.30
2023-04-04T14:24:07.532Z,18.30
2023-04-04T14:26:37.639Z,18.50
2023-04-04T14:29:05.681Z,18.60
2023-04-04T14:31:34.927Z,18.60
2023-04-04T14:34:02.998Z,18.60
2023-04-04T14:36:31.894Z,18.60
2023-04-04T14:38:59.836Z,18.60
2023-04-04T14:41:27.645Z,18.60
2023-04-04T14:43:55.413Z,18.50
2023-04-04T14:46:23.588Z,18.50
2023-04-04T14:48:51.754Z,18.50
2023-04-04T14:51:20.135Z,18.50
2023-04-04T14:53:47.967Z,18.50
2023-04-04T14:56:15.787Z,18.60
2023-04-04T14:58:43.575Z,18.60
2023-04-04T15:01:12.402Z,18.60
2023-04-04T15:03:40.280Z,18.60
2023-04-04T15:06:08.062Z,18.60
2023-04-04T15:08:35.840Z,18.60
2023-04-04T15:11:03.734Z,18.60
2023-04-04T15:13:31.990Z,18.60
2023-04-04T15:16:00.335Z,18.60
2023-04-04T15:18:28.420Z,18.60
2023-04-04T15:20:56.276Z,18.60
2023-04-04T15:23:24.099Z,18.60
2023-04-04T15:25:51.919Z,18.60
2023-04-04T15:28:19.673Z,18.50
2023-04-04T15:30:47.456Z,18.50
2023-04-04T15:33:15.518Z,18.50
2023-04-04T15:35:43.758Z,18.50
2023-04-04T15:38:11.611Z,18.40
2023-04-04T15:40:39.712Z,18.40
2023-04-04T15:43:07.832Z,18.40
2023-04-04T15:45:35.721Z,18.40
2023-04-04T15:48:03.965Z,18.30
2023-04-04T15:50:31.844Z,18.30
2023-04-04T15:52:59.622Z,18.30
2023-04-04T15:55:27.622Z,18.20
2023-04-04T15:57:55.969Z,18.30
2023-04-04T16:00:26.161Z,18.20
2023-04-04T16:02:54.075Z,18.30
2023-04-04T16:05:21.932Z,18.30
2023-04-04T16:07:49.859Z,18.40
2023-04-04T16:10:17.671Z,18.40
2023-04-04T16:12:45.510Z,18.40
2023-04-04T16:15:13.482Z,18.50
2023-04-04T16:17:41.389Z,18.50
2023-04-04T16:20:09.746Z,18.50
2023-04-04T16:22:37.626Z,18.50
2023-04-04T16:25:09.246Z,18.50
2023-04-04T16:27:37.365Z,18.50
2023-04-04T16:30:05.148Z,18.50
2023-04-04T16:32:34.543Z,18.50
2023-04-04T16:35:02.470Z,18.50
2023-04-04T16:37:30.474Z,18.50
2023-04-04T16:40:01.403Z,18.50
2023-04-04T16:42:29.273Z,18.50
2023-04-04T16:44:57.104Z,18.40
2023-04-04T16:47:28.370Z,18.40
2023-04-04T16:49:56.766Z,18.40
2023-04-04T16:52:24.736Z,18.40
2023-04-04T16:54:52.740Z,18.30
2023-04-04T16:57:20.597Z,18.30
2023-04-04T16:59:48.550Z,18.30
2023-04-04T17:02:18.724Z,18.20
2023-04-04T17:04:46.729Z,18.20
2023-04-04T17:07:14.630Z,18.20
2023-04-04T17:09:47.178Z,18.20
2023-04-04T17:12:16.413Z,18.20
2023-04-04T17:14:44.377Z,18.20
2023-04-04T17:17:17.498Z,18.30
2023-04-04T17:19:48.203Z,18.30
2023-04-04T17:22:16.234Z,18.50
2023-04-04T17:24:44.406Z,18.50
2023-04-04T17:27:12.380Z,18.60
2023-04-04T17:29:40.231Z,18.70
2023-04-04T17:32:08.151Z,18.70
2023-04-04T17:34:36.273Z,18.70
2023-04-04T17:37:04.098Z,18.80
2023-04-04T17:39:32.330Z,18.80
2023-04-04T17:42:00.182Z,18.90
2023-04-04T17:44:30.409Z,19.00
2023-04-04T17:46:58.926Z,19.00
2023-04-04T17:49:27.222Z,19.10
2023-04-04T17:51:55.373Z,19.10
2023-04-04T17:54:29.253Z,19.10
2023-04-04T17:56:57.582Z,19.10
2023-04-04T17:59:26.060Z,19.10
2023-04-04T18:01:54.412Z,19.10
2023-04-04T18:04:25.986Z,19.10
2023-04-04T18:06:54.722Z,19.00
2023-04-04T18:09:27.659Z,19.00
2023-04-04T18:11:55.470Z,19.00
2023-04-04T18:14:23.625Z,18.90
2023-04-04T18:16:51.385Z,18.90
2023-04-04T18:19:19.181Z,18.80
2023-04-04T18:21:47.691Z,18.80
2023-04-04T18:24:15.523Z,18.70
2023-04-04T18:26:44.475Z,18.70
2023-04-04T18:29:14.833Z,18.60
2023-04-04T18:31:42.691Z,18.60
2023-04-04T18:34:10.861Z,18.60
2023-04-04T18:36:39.820Z,18.50
2023-04-04T18:39:10.017Z,18.50
2023-04-04T18:41:37.906Z,18.50
2023-04-04T18:44:05.908Z,18.50
2023-04-04T18:46:33.942Z,18.40
2023-04-04T18:49:02.053Z,18.30
2023-04-04T18:51:29.896Z,18.30
2023-04-04T18:53:58.027Z,18.30
2023-04-04T18:56:26.197Z,18.30
2023-04-04T18:58:54.116Z,18.20
2023-04-04T19:01:21.975Z,18.20
2023-04-04T19:03:51.591Z,18.10
2023-04-04T19:06:19.518Z,18.10
2023-04-04T19:08:47.321Z,18.10
2023-04-04T19:11:15.870Z,18.10
2023-04-04T19:13:43.832Z,18.10
2023-04-04T19:16:16.753Z,18.00
2023-04-04T19:18:44.809Z,18.00
2023-04-04T19:21:12.713Z,18.00
2023-04-04T19:23:40.904Z,18.00
2023-04-04T19:26:08.818Z,17.90
2023-04-04T19:28:36.864Z,17.90
2023-04-04T19:31:06.502Z,17.90
2023-04-04T19:33:34.695Z,17.90
2023-04-04T19:36:02.646Z,17.90
2023-04-04T19:38:30.490Z,17.80
2023-04-04T19:40:58.452Z,17.80
2023-04-04T19:43:26.369Z,17.80
2023-04-04T19:45:54.312Z,17.80
2023-04-04T19:48:22.301Z,17.80
2023-04-04T19:50:50.071Z,17.80
2023-04-04T19:53:17.984Z,17.80
2023-04-04T19:55:46.092Z,17.80
2023-04-04T19:58:13.858Z,17.80
2023-04-04T20:00:42.075Z,17.70
2023-04-04T20:03:10.715Z,17.70
2023-04-04T20:05:39.013Z,17.70
2023-04-04T20:08:07.141Z,17.70
2023-04-04T20:10:34.925Z,17.70
2023-04-04T20:13:02.800Z,17.70
2023-04-04T20:15:31.030Z,17.70
2023-04-04T20:17:58.903Z,17.70
2023-04-04T20:20:26.714Z,17.70
2023-04-04T20:22:54.699Z,17.60
2023-04-04T20:25:22.631Z,17.60
2023-04-04T20:27:50.715Z,17.60
2023-04-04T20:30:19.800Z,17.60
2023-04-04T20:32:47.651Z,17.60
2023-04-04T20:35:15.865Z,17.60
2023-04-04T20:37:43.982Z,17.60
2023-04-04T20:40:12.980Z,17.60
2023-04-04T20:42:42.924Z,17.60
2023-04-04T20:45:11.200Z,17.60
2023-04-04T20:47:41.425Z,17.60
2023-04-04T20:50:09.296Z,17.50
2023-04-04T20:52:37.204Z,17.50
2023-04-04T20:55:05.282Z,17.50
2023-04-04T20:57:33.061Z,17.50
2023-04-04T21:00:04.733Z,17.50
2023-04-04T21:02:32.669Z,17.50
2023-04-04T21:05:00.846Z,17.50
2023-04-04T21:07:28.644Z,17.40
2023-04-04T21:09:56.501Z,17.40
2023-04-04T21:12:24.258Z,17.40
2023-04-04T21:14:52.238Z,17.40
2023-04-04T21:17:20.042Z,17.40
2023-04-04T21:19:50.861Z,17.40
2023-04-04T21:22:18.611Z,17.40
2023-04-04T21:24:46.397Z,17.40
2023-04-04T21:27:16.244Z,17.40
2023-04-04T21:29:44.023Z,17.40
2023-04-04T21:32:13.606Z,17.30
2023-04-04T21:34:41.418Z,17.30
2023-04-04T21:37:11.723Z,17.30
2023-04-04T21:39:39.556Z,17.30
2023-04-04T21:42:08.983Z,17.30
2023-04-04T21:44:40.008Z,17.30
2023-04-04T21:47:07.887Z,17.20
2023-04-04T21:49:35.684Z,17.20
2023-04-04T21:52:03.608Z,17.20
2023-04-04T21:54:31.598Z,17.20
2023-04-04T21:56:59.441Z,17.20
2023-04-04T21:59:27.297Z,17.20
2023-04-04T22:01:55.184Z,17.20
2023-04-04T22:04:23.160Z,17.20
2023-04-04T22:06:51.250Z,17.20
2023-04-04T22:09:19.306Z,17.20
2023-04-04T22:11:47.105Z,17.20
2023-04-04T22:14:18.134Z,17.10
2023-04-04T22:16:46.365Z,17.10
2023-04-04T22:19:14.340Z,17.10
2023-04-04T22:21:48.273Z,17.10
2023-04-04T22:24:18.244Z,17.10
2023-04-04T22:26:46.531Z,17.10
2023-04-04T22:29:14.355Z,17.10
2023-04-04T22:31:42.204Z,17.10
2023-04-04T22:34:11.421Z,17.10
2023-04-04T22:36:41.196Z,17.10
2023-04-04T22:39:09.016Z,17.00
2023-04-04T22:41:36.921Z,17.00
2023-04-04T22:44:04.831Z,17.00
2023-04-04T22:46:32.662Z,17.00
2023-04-04T22:49:06.686Z,17.00
2023-04-04T22:51:43.108Z,17.00
2023-04-04T22:54:13.159Z,17.00
2023-04-04T22:56:41.005Z,17.00
2023-04-04T22:59:08.936Z,17.00
2023-04-04T23:01:36.802Z,17.00
2023-04-04T23:04:04.752Z,17.00
2023-04-04T23:06:33.112Z,17.00
2023-04-04T23:09:01.916Z,17.00
2023-04-04T23:11:30.586Z,17.00
2023-04-04T23:13:58.546Z,17.00
2023-04-04T23:16:26.610Z,16.90
2023-04-04T23:18:54.533Z,16.90
2023-04-04T23:21:22.625Z,16.90
2023-04-04T23:23:50.904Z,16.90
2023-04-04T23:26:18.861Z,16.90
2023-04-04T23:28:46.640Z,16.90
2023-04-04T23:31:16.307Z,16.90
2023-04-04T23:33:44.199Z,16.90
2023-04-04T23:36:12.084Z,16.90
2023-04-04T23:38:39.944Z,16.90
2023-04-04T23:41:07.733Z,16.90
2023-04-04T23:43:36.138Z,16.90
2023-04-04T23:46:04.010Z,16.90
2023-04-04T23:48:31.980Z,16.90
2023-04-04T23:51:01.789Z,16.90
2023-04-04T23:53:29.961Z,16.90
2023-04-04T23:55:57.779Z,16.90
2023-04-04T23:58:25.714Z,16.90
